Time;durP1;ratioP1;P1;durP2;ratioP2;P2;SDS_P1;SDS_P2;PMS_P1;PMS_P2;Temp;Humidity;BMP_temperature;BMP_pressure;BME280_temperature;BME280_humidity;BME280_pressure;Samples;Min_cycle;Max_cycle;Signal;HPM_P1;HPM_P2
2021/08/10 00:00:05;;;;;;;0.70;0.70;;;;;;;15.28;100.00;-21096.94;5052564;28;20436;-74
2021/08/10 00:02:36;;;;;;;0.70;0.70;;;;;;;15.15;100.00;-21093.38;5051831;28;20454;-75
2021/08/10 00:05:05;;;;;;;0.70;0.70;;;;;;;15.15;100.00;-21093.50;5051010;28;20442;-74
2021/08/10 00:07:33;;;;;;;0.73;0.73;;;;;;;15.12;100.00;-21092.53;5052705;28;20437;-74
2021/08/10 00:10:00;;;;;;;0.70;0.70;;;;;;;15.00;100.00;-21089.38;5037729;28;20459;-74
2021/08/10 00:12:27;;;;;;;0.70;0.70;;;;;;;14.98;100.00;-21088.97;5018055;28;20439;-74
2021/08/10 00:14:55;;;;;;;0.80;0.80;;;;;;;15.05;100.00;-21090.63;5032685;28;20934;-74
2021/08/10 00:17:22;;;;;;;0.80;0.73;;;;;;;14.92;100.00;-21087.31;5035579;28;20441;-74
2021/08/10 00:19:51;;;;;;;0.70;0.70;;;;;;;14.86;100.00;-21085.66;5051342;28;20450;-74
2021/08/10 00:22:17;;;;;;;0.70;0.67;;;;;;;14.89;100.00;-21086.50;5052646;28;20416;-74
2021/08/10 00:24:45;;;;;;;0.70;0.60;;;;;;;14.93;100.00;-21087.59;5052365;28;20446;-74
2021/08/10 00:27:13;;;;;;;0.70;0.70;;;;;;;14.97;100.00;-21088.56;5053604;28;20455;-74
2021/08/10 00:29:41;;;;;;;0.70;0.70;;;;;;;15.12;100.00;-21092.53;5054605;28;20435;-74
2021/08/10 00:32:11;;;;;;;0.70;0.70;;;;;;;15.08;100.00;-21091.56;5036515;28;20474;-74
2021/08/10 00:34:38;;;;;;;0.70;0.70;;;;;;;15.03;100.00;-21090.06;5054886;28;20864;-74
2021/08/10 00:37:27;;;;;;;0.70;0.70;;;;;;;14.93;100.00;-21087.44;5054084;28;20535;-74
2021/08/10 00:39:55;;;;;;;0.70;0.70;;;;;;;14.90;100.00;-21086.63;5050489;28;20534;-73
2021/08/10 00:42:22;;;;;;;0.70;0.60;;;;;;;14.91;100.00;-21086.91;5018192;28;20483;-74
2021/08/10 00:44:50;;;;;;;0.70;0.60;;;;;;;14.85;100.00;-21085.25;5034032;28;20817;-74
2021/08/10 00:47:18;;;;;;;0.73;0.70;;;;;;;14.91;100.00;-21086.91;5034909;28;20452;-73
2021/08/10 00:49:45;;;;;;;0.70;0.60;;;;;;;14.92;100.00;-21087.31;5053024;28;20454;-73
2021/08/10 00:52:15;;;;;;;0.70;0.70;;;;;;;14.92;100.00;-21087.31;5054240;28;20543;-74
2021/08/10 00:54:43;;;;;;;0.70;0.70;;;;;;;14.90;100.00;-21086.63;5054321;28;20467;-73
2021/08/10 00:57:12;;;;;;;0.70;0.70;;;;;;;14.89;100.00;-21086.50;5054410;28;20460;-73
2021/08/10 00:59:41;;;;;;;0.70;0.70;;;;;;;14.86;100.00;-21085.66;5054152;28;20495;-73
2021/08/10 01:02:09;;;;;;;0.80;0.70;;;;;;;14.85;100.00;-21085.38;5042098;28;20451;-73
2021/08/10 01:04:38;;;;;;;0.70;0.70;;;;;;;14.71;100.00;-21081.53;5034351;28;20500;-74
2021/08/10 01:07:13;;;;;;;0.70;0.70;;;;;;;14.65;100.00;-21080.00;5018207;28;20433;-73
2021/08/10 01:09:55;;;;;;;0.70;0.70;;;;;;;14.60;100.00;-21078.50;5028089;28;20456;-74
2021/08/10 01:12:30;;;;;;;0.70;0.60;;;;;;;14.61;100.00;-21078.91;5038374;28;20480;-74
2021/08/10 01:15:04;;;;;;;0.70;0.60;;;;;;;14.57;100.00;-21077.69;5037477;28;20455;-73
2021/08/10 01:17:38;;;;;;;0.80;0.80;;;;;;;14.55;100.00;-21077.13;5045641;28;20548;-73
2021/08/10 01:20:32;;;;;;;0.70;0.70;;;;;;;14.61;100.00;-21078.78;5033776;28;20440;-73
2021/08/10 01:23:04;;;;;;;0.73;0.70;;;;;;;14.66;100.00;-21080.16;5033753;28;20468;-73
2021/08/10 01:25:49;;;;;;;0.80;0.73;;;;;;;14.83;100.00;-21084.84;5017916;28;20880;-73
2021/08/10 01:28:36;;;;;;;0.70;0.60;;;;;;;14.89;100.00;-21086.50;5033933;28;20857;-74
2021/08/10 01:31:15;;;;;;;0.70;0.60;;;;;;;15.13;100.00;-21092.81;5019119;28;20470;-74
2021/08/10 01:33:51;;;;;;;0.70;0.70;;;;;;;15.04;100.00;-21090.34;5045023;28;20446;-73
2021/08/10 01:36:21;;;;;;;0.80;0.80;;;;;;;15.09;100.00;-21091.84;5034110;28;20413;-73
2021/08/10 01:38:54;;;;;;;0.70;0.60;;;;;;;15.14;100.00;-21093.09;5032997;28;20876;-73
2021/08/10 01:41:24;;;;;;;0.70;0.60;;;;;;;15.35;100.00;-21098.72;5017289;28;20432;-74
2021/08/10 01:43:54;;;;;;;0.70;0.70;;;;;;;15.40;100.00;-21100.25;5034072;28;20461;-73
2021/08/10 01:46:26;;;;;;;0.70;0.70;;;;;;;15.38;100.00;-21099.69;5017159;28;20443;-73
2021/08/10 01:48:59;;;;;;;0.70;0.70;;;;;;;15.28;100.00;-21096.94;5033400;28;20448;-73
2021/08/10 01:51:29;;;;;;;0.70;0.70;;;;;;;15.31;100.00;-21097.63;5017443;28;21006;-73
2021/08/10 01:54:01;;;;;;;0.70;0.70;;;;;;;15.41;100.00;-21100.50;5016752;28;20467;-73
2021/08/10 01:56:50;;;;;;;0.80;0.80;;;;;;;15.50;100.00;-21102.72;5033564;28;21000;-74
2021/08/10 01:59:20;;;;;;;0.70;0.70;;;;;;;15.49;100.00;-21102.44;5017236;28;20503;-73
2021/08/10 02:01:51;;;;;;;0.70;0.60;;;;;;;15.43;100.00;-21100.94;5016668;28;20969;-73
2021/08/10 02:04:24;;;;;;;0.70;0.70;;;;;;;15.29;100.00;-21097.22;5033271;28;20951;-73
2021/08/10 02:06:54;;;;;;;0.80;0.70;;;;;;;15.21;100.00;-21095.00;5017075;28;20440;-73
2021/08/10 02:09:24;;;;;;;0.70;0.70;;;;;;;15.12;100.00;-21092.53;5033008;28;20523;-73
2021/08/10 02:11:56;;;;;;;0.70;0.70;;;;;;;15.08;100.00;-21091.44;5040788;28;21278;-73
2021/08/10 02:14:30;;;;;;;0.70;0.70;;;;;;;15.12;100.00;-21092.53;5053468;28;20440;-73
2021/08/10 02:17:14;;;;;;;0.80;0.80;;;;;;;15.02;100.00;-21089.78;5038350;28;20486;-73
2021/08/10 02:19:47;;;;;;;0.70;0.70;;;;;;;15.02;100.00;-21089.78;5052595;28;20444;-74
2021/08/10 02:22:17;;;;;;;0.70;0.70;;;;;;;15.02;100.00;-21089.78;5052484;28;20446;-73
2021/08/10 02:24:53;;;;;;;0.70;0.60;;;;;;;15.03;100.00;-21090.19;5052588;28;20455;-73
2021/08/10 02:27:27;;;;;;;0.80;0.80;;;;;;;15.08;100.00;-21091.44;5052712;28;20435;-73
2021/08/10 02:29:56;;;;;;;0.70;0.67;;;;;;;15.11;100.00;-21092.25;5052228;28;20461;-73
2021/08/10 02:32:31;;;;;;;0.80;0.80;;;;;;;15.06;100.00;-21091.03;5052422;28;20545;-73
2021/08/10 02:35:00;;;;;;;0.70;0.60;;;;;;;15.05;100.00;-21090.63;5049375;28;20942;-73
2021/08/10 02:37:29;;;;;;;0.70;0.70;;;;;;;15.05;100.00;-21090.63;5045382;28;20454;-73
2021/08/10 02:40:01;;;;;;;0.70;0.70;;;;;;;15.06;100.00;-21091.03;5034565;28;20452;-73
2021/08/10 02:42:28;;;;;;;0.70;0.70;;;;;;;15.05;100.00;-21090.63;5036181;28;20914;-73
2021/08/10 02:44:57;;;;;;;0.77;0.77;;;;;;;15.03;100.00;-21090.19;5052582;28;21056;-73
2021/08/10 02:47:28;;;;;;;0.70;0.70;;;;;;;15.13;100.00;-21092.81;5052244;28;20527;-73
2021/08/10 02:49:58;;;;;;;0.73;0.70;;;;;;;15.10;100.00;-21092.00;5051129;28;20569;-73
2021/08/10 02:52:26;;;;;;;0.70;0.70;;;;;;;15.12;100.00;-21092.53;5051968;28;20544;-74
2021/08/10 02:54:54;;;;;;;0.80;0.80;;;;;;;15.14;100.00;-21093.22;5052166;28;20449;-73
2021/08/10 02:57:25;;;;;;;0.70;0.60;;;;;;;15.19;100.00;-21094.47;5052558;28;20438;-73
2021/08/10 02:59:57;;;;;;;0.70;0.70;;;;;;;15.26;100.00;-21096.38;5052004;28;20429;-73
2021/08/10 03:02:30;;;;;;;0.70;0.63;;;;;;;15.18;100.00;-21094.31;5050890;28;20436;-73
2021/08/10 03:05:03;;;;;;;0.80;0.80;;;;;;;15.20;100.00;-21094.75;5052596;28;20503;-74
2021/08/10 03:07:32;;;;;;;0.70;0.60;;;;;;;15.24;100.00;-21095.84;5051993;28;20442;-73
2021/08/10 03:10:02;;;;;;;0.70;0.70;;;;;;;15.30;100.00;-21097.50;5050856;28;20948;-73
2021/08/10 03:12:33;;;;;;;0.70;0.67;;;;;;;15.42;100.00;-21100.78;5043359;28;20467;-73
2021/08/10 03:15:01;;;;;;;0.70;0.67;;;;;;;15.50;100.00;-21102.84;5035193;28;20454;-74
2021/08/10 03:17:34;;;;;;;0.70;0.60;;;;;;;15.52;100.00;-21103.41;5051484;28;20957;-74
2021/08/10 03:20:05;;;;;;;0.70;0.70;;;;;;;15.79;100.00;-21110.56;5015787;28;20471;-74
2021/08/10 03:22:34;;;;;;;0.70;0.70;;;;;;;15.92;100.00;-21114.25;5031789;28;20916;-73
2021/08/10 03:25:02;;;;;;;0.70;0.60;;;;;;;15.84;100.00;-21112.06;5032031;28;20998;-74
2021/08/10 03:27:30;;;;;;;0.70;0.60;;;;;;;15.91;100.00;-21114.00;5032058;28;20452;-73
2021/08/10 03:29:57;;;;;;;0.70;0.70;;;;;;;15.79;100.00;-21110.56;5031795;28;20909;-73
2021/08/10 03:32:25;;;;;;;0.77;0.77;;;;;;;15.75;100.00;-21109.59;5030384;28;20875;-74
2021/08/10 03:34:55;;;;;;;0.70;0.70;;;;;;;15.78;100.00;-21110.28;5031834;28;20444;-74
2021/08/10 03:37:28;;;;;;;0.70;0.60;;;;;;;15.76;100.00;-21109.88;5031433;28;20901;-73
2021/08/10 03:39:56;;;;;;;0.70;0.60;;;;;;;15.80;100.00;-21110.97;5031529;28;20441;-73
2021/08/10 03:42:25;;;;;;;0.70;0.70;;;;;;;15.74;100.00;-21109.19;5015806;28;20432;-73
2021/08/10 03:44:54;;;;;;;0.70;0.60;;;;;;;15.74;100.00;-21109.31;5037827;28;20462;-72
2021/08/10 03:47:21;;;;;;;0.67;0.60;;;;;;;15.70;100.00;-21108.34;5034839;28;20436;-72
2021/08/10 03:49:51;;;;;;;0.80;0.80;;;;;;;15.72;100.00;-21108.75;5051159;28;20500;-72
2021/08/10 03:52:19;;;;;;;0.70;0.67;;;;;;;15.69;100.00;-21108.09;5051501;28;20462;-74
2021/08/10 03:54:49;;;;;;;0.70;0.70;;;;;;;15.65;100.00;-21106.84;5051551;28;20470;-73
2021/08/10 03:57:20;;;;;;;0.70;0.70;;;;;;;15.59;100.00;-21105.31;5051507;28;20449;-73
2021/08/10 03:59:53;;;;;;;0.70;0.70;;;;;;;15.55;100.00;-21104.09;5051534;28;20958;-73
2021/08/10 04:02:21;;;;;;;0.70;0.70;;;;;;;15.53;100.00;-21103.53;5045418;28;20443;-76
2021/08/10 04:04:52;;;;;;;0.70;0.60;;;;;;;15.50;100.00;-21102.72;5019016;28;20440;-73
2021/08/10 04:07:22;;;;;;;0.70;0.60;;;;;;;15.52;100.00;-21103.25;5019497;28;20448;-73
2021/08/10 04:09:51;;;;;;;0.70;0.70;;;;;;;15.44;100.00;-21101.34;5036744;28;20440;-74
2021/08/10 04:12:21;;;;;;;0.70;0.67;;;;;;;15.48;100.00;-21102.31;5035181;28;20463;-73
2021/08/10 04:15:12;;;;;;;0.70;0.70;;;;;;;15.49;100.00;-21102.44;5036747;28;20920;-72
2021/08/10 04:17:42;;;;;;;0.73;0.70;;;;;;;15.62;100.00;-21106.00;5035288;28;20439;-72
2021/08/10 04:20:11;;;;;;;0.70;0.70;;;;;;;15.58;100.00;-21104.91;5035372;28;20470;-73
2021/08/10 04:22:40;;;;;;;0.67;0.60;;;;;;;15.48;100.00;-21102.16;5018575;28;20484;-72
2021/08/10 04:25:14;;;;;;;0.70;0.60;;;;;;;15.46;100.00;-21101.88;5019631;28;20462;-73
2021/08/10 04:27:42;;;;;;;0.70;0.70;;;;;;;15.44;100.00;-21101.19;5035153;28;20497;-72
2021/08/10 04:30:14;;;;;;;0.70;0.67;;;;;;;15.43;100.00;-21101.06;5034681;28;20494;-72
2021/08/10 04:32:46;;;;;;;0.77;0.77;;;;;;;15.42;100.00;-21100.78;5034840;28;20509;-72
2021/08/10 04:35:17;;;;;;;0.70;0.60;;;;;;;15.36;100.00;-21099.13;5035254;28;20460;-73
2021/08/10 04:37:46;;;;;;;0.70;0.70;;;;;;;15.29;100.00;-21097.22;5018414;28;20470;-72
2021/08/10 04:40:16;;;;;;;0.70;0.70;;;;;;;15.24;100.00;-21095.84;5040707;28;20460;-73
2021/08/10 04:43:18;;;;;;;0.70;0.60;;;;;;;15.17;100.00;-21094.06;5035871;28;20447;-73
2021/08/10 04:45:48;;;;;;;0.77;0.77;;;;;;;15.11;100.00;-21092.25;5034725;28;20444;-73
2021/08/10 04:48:15;;;;;;;0.80;0.80;;;;;;;15.02;100.00;-21089.78;5040632;28;20528;-74
2021/08/10 04:50:44;;;;;;;0.80;0.80;;;;;;;14.92;100.00;-21087.31;5055786;28;20421;-73
2021/08/10 04:53:16;;;;;;;0.70;0.60;;;;;;;14.87;100.00;-21085.94;5054393;28;20544;-73
2021/08/10 04:55:46;;;;;;;0.70;0.70;;;;;;;14.83;100.00;-21084.84;5054636;28;20433;-73
2021/08/10 04:58:31;;;;;;;0.70;0.70;;;;;;;14.88;100.00;-21086.22;5055837;28;20414;-73
2021/08/10 05:01:00;;;;;;;0.73;0.73;;;;;;;14.92;100.00;-21087.31;5051070;28;20560;-73
2021/08/10 05:03:32;;;;;;;0.70;0.70;;;;;;;15.01;100.00;-21089.50;5054916;28;20422;-73
2021/08/10 05:06:00;;;;;;;0.70;0.70;;;;;;;15.07;100.00;-21091.31;5053968;28;20447;-73
2021/08/10 05:08:27;;;;;;;0.70;0.60;;;;;;;15.18;100.00;-21094.31;5036724;28;20515;-73
2021/08/10 05:10:58;;;;;;;0.70;0.70;;;;;;;15.24;100.00;-21095.84;5038068;28;20449;-73
2021/08/10 05:13:27;;;;;;;0.70;0.60;;;;;;;15.27;100.00;-21096.66;5036892;28;20515;-72
2021/08/10 05:15:55;;;;;;;0.70;0.60;;;;;;;15.28;100.00;-21096.94;5053809;28;20460;-73
2021/08/10 05:18:23;;;;;;;0.70;0.70;;;;;;;15.33;100.00;-21098.31;5054013;28;20448;-73
2021/08/10 05:20:51;;;;;;;0.70;0.60;;;;;;;15.37;100.00;-21099.41;5054463;28;20451;-73
2021/08/10 05:23:19;;;;;;;0.60;0.60;;;;;;;15.45;100.00;-21101.47;5053771;28;20479;-73
2021/08/10 05:25:49;;;;;;;0.80;0.80;;;;;;;15.54;100.00;-21103.81;5054127;28;20809;-72
2021/08/10 05:28:17;;;;;;;0.70;0.70;;;;;;;15.55;100.00;-21104.09;5054349;28;20436;-73
2021/08/10 05:30:46;;;;;;;0.70;0.70;;;;;;;15.62;100.00;-21106.16;5053746;28;20492;-73
2021/08/10 05:33:13;;;;;;;0.70;0.70;;;;;;;15.74;100.00;-21109.31;5053317;28;20499;-73
2021/08/10 05:35:46;;;;;;;0.70;0.70;;;;;;;15.77;100.00;-21110.13;5053816;28;20789;-73
2021/08/10 05:38:14;;;;;;;0.70;0.70;;;;;;;15.89;100.00;-21113.44;5052686;28;20888;-73
2021/08/10 05:40:44;;;;;;;0.70;0.67;;;;;;;15.96;100.00;-21115.22;5053764;28;20441;-73
2021/08/10 05:43:11;;;;;;;0.70;0.70;;;;;;;15.93;100.00;-21114.53;5053309;28;20439;-73
2021/08/10 05:45:40;;;;;;;0.67;0.60;;;;;;;16.07;100.00;-21118.09;5053438;28;20566;-72
2021/08/10 05:48:13;;;;;;;0.70;0.60;;;;;;;16.07;100.00;-21118.25;5053359;28;20477;-73
2021/08/10 05:51:01;;;;;;;0.70;0.63;;;;;;;16.19;100.00;-21121.41;5054030;28;20921;-73
2021/08/10 05:53:34;;;;;;;0.70;0.70;;;;;;;16.17;100.00;-21120.84;5036701;28;20481;-72
2021/08/10 05:56:02;;;;;;;0.70;0.70;;;;;;;16.29;100.00;-21124.16;5053491;28;20454;-73
2021/08/10 05:58:32;;;;;;;0.70;0.60;;;;;;;16.27;100.00;-21123.47;5053584;28;20446;-73
2021/08/10 06:01:04;;;;;;;0.70;0.70;;;;;;;16.31;100.00;-21124.56;5037119;28;20943;-73
2021/08/10 06:03:33;;;;;;;0.70;0.70;;;;;;;16.40;100.00;-21127.16;5052401;28;20464;-73
2021/08/10 06:06:01;;;;;;;0.70;0.70;;;;;;;16.38;100.00;-21126.63;5053245;28;20444;-73
2021/08/10 06:08:36;;;;;;;0.90;0.90;;;;;;;16.54;100.00;-21130.75;5039685;28;20839;-73
2021/08/10 06:11:03;;;;;;;0.80;0.80;;;;;;;16.58;100.00;-21131.84;5038596;28;20435;-74
2021/08/10 06:13:34;;;;;;;0.70;0.70;;;;;;;16.61;100.00;-21132.66;5053910;28;20459;-74
2021/08/10 06:16:04;;;;;;;0.70;0.70;;;;;;;16.73;100.00;-21135.97;5055344;28;20432;-74
2021/08/10 06:18:31;;;;;;;0.70;0.70;;;;;;;16.78;100.00;-21137.34;5047357;28;20438;-74
2021/08/10 06:21:21;;;;;;;0.70;0.70;;;;;;;16.88;100.00;-21140.06;5040382;28;20432;-73
2021/08/10 06:23:48;;;;;;;0.70;0.70;;;;;;;16.96;100.00;-21142.13;5038088;28;20458;-74
2021/08/10 06:26:16;;;;;;;0.70;0.70;;;;;;;16.97;100.00;-21142.41;5032655;28;20531;-74
2021/08/10 06:28:45;;;;;;;0.70;0.60;;;;;;;17.09;100.00;-21145.56;5016843;28;20440;-74
2021/08/10 06:31:13;;;;;;;0.70;0.60;;;;;;;17.36;100.00;-21152.97;5032347;28;20456;-74
2021/08/10 06:33:41;;;;;;;0.70;0.70;;;;;;;17.36;100.00;-21152.97;5035133;28;20561;-74
2021/08/10 06:36:15;;;;;;;0.70;0.70;;;;;;;17.30;100.00;-21151.31;5035969;28;20448;-75
2021/08/10 06:38:42;;;;;;;0.70;0.60;;;;;;;17.44;100.00;-21155.03;5051405;28;20582;-74
2021/08/10 06:41:10;;;;;;;0.70;0.60;;;;;;;17.55;100.00;-21157.91;5036155;28;20446;-74
2021/08/10 06:43:37;;;;;;;0.70;0.63;;;;;;;17.54;100.00;-21157.78;5039356;28;20523;-74
2021/08/10 06:46:25;;;;;;;0.70;0.60;;;;;;;17.68;100.00;-21161.47;5031770;28;20448;-74
2021/08/10 06:48:55;;;;;;;0.73;0.73;;;;;;;17.85;100.00;-21166.13;5032441;28;20996;-74
2021/08/10 06:51:27;;;;;;;0.70;0.70;;;;;;;17.89;100.00;-21166.97;5017067;28;20427;-74
2021/08/10 06:53:55;;;;;;;0.70;0.70;;;;;;;18.02;100.00;-21170.53;5033012;28;20489;-75
2021/08/10 06:56:22;;;;;;;0.70;0.60;;;;;;;18.08;100.00;-21172.31;5041041;28;20815;-73
2021/08/10 06:58:54;;;;;;;0.70;0.70;;;;;;;18.10;100.00;-21172.84;5050986;28;20518;-73
2021/08/10 07:01:26;;;;;;;0.70;0.60;;;;;;;18.25;100.00;-21176.81;5050264;28;20542;-74
2021/08/10 07:03:54;;;;;;;0.70;0.70;;;;;;;18.26;100.00;-21176.97;5033447;28;20443;-72
2021/08/10 07:06:21;;;;;;;0.70;0.70;;;;;;;18.28;100.00;-21177.50;5051855;28;20428;-73
2021/08/10 07:08:54;;;;;;;0.70;0.70;;;;;;;18.28;100.00;-21177.66;5052080;28;20521;-73
2021/08/10 07:11:23;;;;;;;0.70;0.70;;;;;;;18.32;100.00;-21178.59;5051881;28;20436;-73
2021/08/10 07:13:55;;;;;;;0.70;0.70;;;;;;;18.61;100.00;-21098.25;5051875;28;20463;-73
2021/08/10 07:16:23;;;;;;;0.70;0.60;;;;;;;18.80;100.00;-20768.34;5051673;28;20482;-73
2021/08/10 07:18:53;;;;;;;0.70;0.70;;;;;;;18.85;100.00;-20475.28;5051320;28;20555;-73
2021/08/10 07:21:24;;;;;;;0.70;0.67;;;;;;;18.75;100.00;-20173.31;5035652;28;20442;-73
2021/08/10 07:23:57;;;;;;;0.70;0.67;;;;;;;18.89;100.00;-19811.09;5035971;28;20454;-73
2021/08/10 07:26:28;;;;;;;0.70;0.70;;;;;;;18.99;100.00;-19366.69;5051733;28;20440;-73
2021/08/10 07:28:59;;;;;;;0.70;0.70;;;;;;;19.33;100.00;-18810.72;5051906;28;20938;-73
2021/08/10 07:31:29;;;;;;;0.70;0.60;;;;;;;19.67;100.00;-18307.34;5050755;28;20439;-73
2021/08/10 07:34:08;;;;;;;0.70;0.67;;;;;;;19.84;100.00;-17810.03;5036299;28;20478;-73
2021/08/10 07:36:38;;;;;;;0.70;0.60;;;;;;;20.05;100.00;-17402.19;5054995;28;20536;-73
2021/08/10 07:39:06;;;;;;;0.80;0.70;;;;;;;19.97;100.00;-17354.69;5051110;28;20850;-72
2021/08/10 07:41:33;;;;;;;0.70;0.70;;;;;;;20.01;100.00;-17765.28;5038766;28;20417;-73
2021/08/10 07:44:06;;;;;;;0.70;0.70;;;;;;;19.85;100.00;-18161.34;5039565;28;20448;-74
2021/08/10 07:46:38;;;;;;;0.80;0.70;;;;;;;19.57;100.00;-18460.31;5058310;28;20400;-73
2021/08/10 07:49:08;;;;;;;0.70;0.70;;;;;;;19.97;100.00;-18344.66;5041723;28;20418;-73
2021/08/10 07:51:35;;;;;;;0.70;0.60;;;;;;;20.69;100.00;-18750.34;5026574;28;20437;-73
2021/08/10 07:54:02;;;;;;;0.80;0.77;;;;;;;20.86;100.00;-20261.88;5038091;28;20476;-73
2021/08/10 07:56:30;;;;;;;0.70;0.60;;;;;;;20.95;100.00;-21249.00;5037996;28;20433;-73
2021/08/10 07:58:59;;;;;;;0.70;0.60;;;;;;;20.75;100.00;-21243.81;5037902;28;20411;-73
2021/08/10 08:01:27;;;;;;;0.70;0.60;;;;;;;20.63;100.00;-21240.56;5038015;28;20443;-72
2021/08/10 08:03:55;;;;;;;0.70;0.60;;;;;;;20.69;100.00;-21242.19;5037948;28;20432;-72
2021/08/10 08:06:25;;;;;;;0.70;0.60;;;;;;;20.80;100.00;-21244.91;5038193;28;20429;-72
2021/08/10 08:08:52;;;;;;;0.70;0.60;;;;;;;20.94;100.00;-21248.75;5037943;28;20465;-72
2021/08/10 08:11:23;;;;;;;0.70;0.70;;;;;;;20.78;100.00;-21244.38;5021678;28;20883;-72
2021/08/10 08:13:51;;;;;;;0.70;0.60;;;;;;;20.82;100.00;-21245.47;5038121;28;20611;-73
2021/08/10 08:16:20;;;;;;;0.70;0.60;;;;;;;21.01;100.00;-21250.66;5042490;28;20440;-72
2021/08/10 08:18:47;;;;;;;0.70;0.70;;;;;;;21.29;100.00;-21258.03;5048458;28;20446;-72
2021/08/10 08:21:18;;;;;;;0.80;0.70;;;;;;;21.32;100.00;-21258.84;5032082;28;20490;-74
2021/08/10 08:23:51;;;;;;;0.80;0.70;;;;;;;21.30;100.00;-21258.44;5049166;28;20551;-72
2021/08/10 08:26:19;;;;;;;0.70;0.60;;;;;;;21.17;100.00;-21255.03;5048013;28;20478;-73
2021/08/10 08:28:46;;;;;;;0.70;0.60;;;;;;;20.96;100.00;-21249.28;5051258;28;20434;-72
2021/08/10 08:31:13;;;;;;;0.70;0.60;;;;;;;20.78;100.00;-21244.38;5041010;28;20509;-72
2021/08/10 08:33:43;;;;;;;0.70;0.60;;;;;;;20.63;100.00;-21240.41;5056913;28;20463;-73
2021/08/10 08:36:10;;;;;;;0.80;0.70;;;;;;;20.50;100.00;-21237.00;5054467;28;20472;-72
2021/08/10 08:38:38;;;;;;;0.80;0.70;;;;;;;20.39;100.00;-21234.00;5058004;28;20455;-72
2021/08/10 08:41:07;;;;;;;0.70;0.70;;;;;;;20.54;100.00;-21238.09;5057957;28;20854;-72
2021/08/10 08:43:34;;;;;;;0.70;0.60;;;;;;;20.94;100.00;-21248.75;5058230;28;20474;-73
2021/08/10 08:46:02;;;;;;;0.80;0.70;;;;;;;21.32;100.00;-21258.97;5057507;28;20747;-72
2021/08/10 08:48:33;;;;;;;0.70;0.70;;;;;;;21.49;100.00;-21263.47;5055909;28;20460;-73
2021/08/10 08:51:08;;;;;;;0.70;0.60;;;;;;;21.73;100.00;-21269.75;5031858;28;21029;-73
2021/08/10 08:53:43;;;;;;;0.70;0.60;;;;;;;21.61;100.00;-21266.75;5034513;28;20543;-73
2021/08/10 08:56:13;;;;;;;0.70;0.60;;;;;;;21.57;100.00;-21265.53;5053754;28;20449;-73
2021/08/10 08:58:40;;;;;;;0.70;0.60;;;;;;;21.03;100.00;-21251.19;5054373;28;20444;-72
2021/08/10 09:01:11;;;;;;;0.70;0.67;;;;;;;20.88;100.00;-21247.25;5054286;28;20436;-72
2021/08/10 09:03:39;;;;;;;0.70;0.63;;;;;;;20.65;100.00;-21240.97;5053492;28;20440;-73
2021/08/10 09:06:11;;;;;;;0.70;0.60;;;;;;;20.81;100.00;-21245.19;5053924;28;20422;-72
2021/08/10 09:08:40;;;;;;;0.70;0.60;;;;;;;20.64;100.00;-21240.81;5047778;28;20823;-72
2021/08/10 09:11:18;;;;;;;0.70;0.60;;;;;;;20.61;100.00;-21240.00;5045847;28;20435;-72
2021/08/10 09:13:56;;;;;;;0.70;0.60;;;;;;;20.16;100.00;-21228.00;5053845;28;20505;-73
2021/08/10 09:16:25;;;;;;;0.70;0.60;;;;;;;19.96;100.00;-21222.53;5054057;28;20420;-73
2021/08/10 09:18:52;;;;;;;0.70;0.70;;;;;;;19.90;100.00;-21220.88;5043756;28;20520;-73
2021/08/10 09:21:24;;;;;;;0.80;0.70;;;;;;;20.17;100.00;-21228.25;5034103;28;20436;-72
2021/08/10 09:24:01;;;;;;;0.80;0.70;;;;;;;20.37;100.00;-21233.59;5018820;28;20427;-72
2021/08/10 09:26:42;;;;;;;0.70;0.70;;;;;;;20.59;100.00;-21239.47;5033886;28;20512;-73
2021/08/10 09:29:22;;;;;;;0.70;0.60;;;;;;;21.14;100.00;-21254.19;5034008;28;20416;-73
2021/08/10 09:31:53;;;;;;;0.70;0.60;;;;;;;21.19;100.00;-21255.56;5033829;28;20429;-72
2021/08/10 09:34:24;;;;;;;0.70;0.60;;;;;;;20.80;100.00;-21245.06;5049911;28;20447;-72
2021/08/10 09:36:54;;;;;;;0.70;0.60;;;;;;;20.63;100.00;-21240.56;5053369;28;20997;-73
2021/08/10 09:39:30;;;;;;;0.80;0.70;;;;;;;20.63;100.00;-21240.56;5050907;28;20438;-72
2021/08/10 09:42:04;;;;;;;0.70;0.60;;;;;;;20.77;100.00;-21244.25;5053606;28;20526;-73
2021/08/10 09:44:36;;;;;;;0.70;0.60;;;;;;;21.01;100.00;-21250.66;5053558;28;20407;-72
2021/08/10 09:47:04;;;;;;;0.80;0.70;;;;;;;21.22;100.00;-21256.38;5052959;28;20403;-72
2021/08/10 09:49:43;;;;;;;0.70;0.63;;;;;;;21.12;100.00;-21253.66;5053514;28;20922;-72
2021/08/10 09:52:23;;;;;;;0.80;0.80;;;;;;;20.66;100.00;-21241.38;5046764;28;20524;-72
2021/08/10 09:55:07;;;;;;;0.70;0.60;;;;;;;20.68;100.00;-21241.91;5026382;28;20465;-72
2021/08/10 09:57:36;;;;;;;0.70;0.60;;;;;;;20.78;100.00;-21244.38;5042348;28;20442;-72
2021/08/10 10:00:07;;;;;;;0.70;0.60;;;;;;;21.04;100.00;-21251.34;5054418;28;20416;-72
2021/08/10 10:02:38;;;;;;;0.80;0.80;;;;;;;22.02;100.00;-21277.50;5050895;28;20926;-72
2021/08/10 10:05:08;;;;;;;0.70;0.70;;;;;;;22.98;100.00;-21303.25;5050791;28;20797;-73
2021/08/10 10:07:37;;;;;;;0.80;0.70;;;;;;;23.11;100.00;-21306.78;5019064;28;20404;-73
2021/08/10 10:10:07;;;;;;;0.70;0.60;;;;;;;23.41;100.00;-21314.53;5050379;28;20456;-73
2021/08/10 10:12:46;;;;;;;0.80;0.70;;;;;;;23.51;100.00;-21317.41;5048495;28;20551;-72
2021/08/10 10:15:14;;;;;;;0.70;0.60;;;;;;;23.63;100.00;-21320.66;5017113;28;20567;-73
2021/08/10 10:17:43;;;;;;;0.80;0.60;;;;;;;23.46;100.00;-21316.03;5034374;28;20418;-72
2021/08/10 10:20:12;;;;;;;0.80;0.70;;;;;;;23.59;100.00;-21319.44;5034371;28;20779;-72
2021/08/10 10:22:41;;;;;;;0.70;0.60;;;;;;;23.88;100.00;-21327.03;5035613;28;20522;-72
2021/08/10 10:25:10;;;;;;;0.70;0.60;;;;;;;23.46;100.00;-21316.03;5054126;28;20412;-72
2021/08/10 10:27:38;;;;;;;0.70;0.60;;;;;;;23.30;100.00;-21311.69;5047051;28;20414;-72
2021/08/10 10:30:07;;;;;;;0.70;0.60;;;;;;;23.37;100.00;-21313.72;5020407;28;20428;-73
2021/08/10 10:32:34;;;;;;;0.70;0.50;;;;;;;23.41;100.00;-21314.53;5053798;28;20905;-72
2021/08/10 10:35:01;;;;;;;0.70;0.60;;;;;;;23.58;100.00;-21319.28;5051432;28;20464;-73
2021/08/10 10:37:33;;;;;;;0.70;0.50;;;;;;;23.67;100.00;-21321.47;5053938;28;20418;-73
2021/08/10 10:40:03;;;;;;;0.70;0.60;;;;;;;23.48;100.00;-21316.44;5035265;28;20452;-73
2021/08/10 10:42:31;;;;;;;0.70;0.60;;;;;;;23.26;100.00;-21310.59;5034050;28;20413;-74
2021/08/10 10:44:59;;;;;;;0.70;0.60;;;;;;;23.57;100.00;-21319.03;5038561;28;20794;-73
2021/08/10 10:47:35;;;;;;;0.70;0.60;;;;;;;23.74;100.00;-21323.38;5043487;28;20806;-73
2021/08/10 10:50:15;;;;;;;0.70;0.60;;;;;;;23.73;100.00;-21323.09;5033074;28;20409;-73
2021/08/10 10:53:01;;;;;;;2.40;1.27;;;;;;;23.69;100.00;-21322.03;5042879;28;20457;-74
2021/08/10 10:55:46;;;;;;;0.70;0.60;;;;;;;23.58;100.00;-21319.28;5052505;28;20514;-73
2021/08/10 10:58:25;;;;;;;0.70;0.60;;;;;;;23.10;100.00;-21306.50;5054390;28;20432;-73
2021/08/10 11:01:12;;;;;;;0.70;0.60;;;;;;;23.00;100.00;-21303.78;5052406;28;20412;-74
2021/08/10 11:04:03;;;;;;;0.80;0.70;;;;;;;22.72;100.00;-21296.16;5052642;28;20447;-74
2021/08/10 11:06:31;;;;;;;0.70;0.60;;;;;;;22.93;100.00;-21301.88;5043335;28;20438;-73
2021/08/10 11:08:58;;;;;;;0.70;0.60;;;;;;;23.37;100.00;-21313.59;5035717;28;20473;-74
2021/08/10 11:11:48;;;;;;;0.70;0.60;;;;;;;23.12;100.00;-21307.06;5033236;28;20818;-73
2021/08/10 11:14:54;;;;;;;0.80;0.70;;;;;;;24.26;100.00;-21337.22;5031489;28;20480;-74
2021/08/10 11:17:22;;;;;;;0.70;0.57;;;;;;;25.44;100.00;-21368.72;5034605;28;20788;-74
2021/08/10 11:19:51;;;;;;;0.70;0.60;;;;;;;26.37;100.00;-21393.38;5052028;28;20907;-74
2021/08/10 11:22:26;;;;;;;0.70;0.50;;;;;;;26.38;100.00;-21393.63;5043083;28;20502;-75
2021/08/10 11:25:00;;;;;;;0.70;0.50;;;;;;;27.40;100.00;-21420.69;5053104;28;20488;-74
2021/08/10 11:27:32;;;;;;;0.70;0.50;;;;;;;27.35;100.00;-21419.19;5036944;28;20453;-75
2021/08/10 11:30:00;;;;;;;0.70;0.50;;;;;;;28.48;100.00;-21449.19;5033245;28;20894;-74
2021/08/10 11:32:35;;;;;;;0.70;0.50;;;;;;;28.70;100.00;-21454.97;5033260;28;20804;-75
2021/08/10 11:35:24;;;;;;;0.70;0.70;;;;;;;27.10;100.00;-21412.72;5030954;28;20567;-74